Terminal Aerodrome Forecast
Issued by NWS Missoula, MT

Home | Current Version | Previous Version | Text Only | Print | Product List | Glossary On
Versions: 1 2 3 4 5 6 7 8 9 10 11 12 13 14
878
FTUS45 KMSO 201739
TAFBTM
TAF
KBTM 201739Z 2018/2118 18015G30KT P6SM VCSH FEW060
     FM210000 21012KT P6SM VCSH SCT060
     FM210300 24008KT P6SM VCSH BKN060=

USA.gov is the U.S. government's official web portal to all federal, state and local government web resources and services.